createdAt,value
2023-04-17T00:03:47.577Z,98971.88
2023-04-17T00:08:48.956Z,98970.11
2023-04-17T00:13:50.140Z,98968.39
2023-04-17T00:18:51.163Z,98968.16
2023-04-17T00:23:52.198Z,98964.64
2023-04-17T00:28:53.224Z,98965.48
2023-04-17T00:33:54.267Z,98969.43
2023-04-17T00:38:55.403Z,98972.27
2023-04-17T00:43:56.405Z,98973.58
2023-04-17T00:48:59.255Z,98976.14
2023-04-17T00:54:00.578Z,98970.30
2023-04-17T00:59:05.782Z,98971.39
2023-04-17T01:04:09.252Z,98974.60
2023-04-17T01:09:11.045Z,98979.48
2023-04-17T01:14:14.142Z,98982.77
2023-04-17T01:19:16.214Z,98985.15
2023-04-17T01:24:17.362Z,98988.29
2023-04-17T01:29:18.358Z,98986.55
2023-04-17T01:34:19.836Z,98983.88
2023-04-17T01:39:21.023Z,98979.83
2023-04-17T01:44:22.020Z,98979.63
2023-04-17T01:49:23.046Z,98973.20
2023-04-17T01:54:24.327Z,98974.34
2023-04-17T01:59:25.385Z,98946.95
2023-04-17T02:04:26.586Z,98971.58
2023-04-17T02:09:28.042Z,98970.16
2023-04-17T02:14:30.533Z,98974.98
2023-04-17T02:19:31.597Z,98975.41
2023-04-17T02:24:32.633Z,98978.83
2023-04-17T02:29:34.654Z,98983.48
2023-04-17T02:34:36.124Z,98980.61
2023-04-17T02:39:37.325Z,98980.59
2023-04-17T02:44:39.288Z,98986.60
2023-04-17T02:49:41.169Z,98995.05
2023-04-17T02:54:42.296Z,98995.16
2023-04-17T02:59:44.287Z,98994.37
2023-04-17T03:04:48.410Z,98990.84
2023-04-17T03:09:49.722Z,98994.17
2023-04-17T03:14:51.469Z,98997.78
2023-04-17T03:19:52.477Z,98995.27
2023-04-17T03:24:53.481Z,98995.54
2023-04-17T03:29:55.810Z,99001.23
2023-04-17T03:34:57.113Z,99005.05
2023-04-17T03:39:58.108Z,99008.05
2023-04-17T03:44:59.794Z,99014.91
2023-04-17T03:50:01.614Z,99016.84
2023-04-17T03:55:07.686Z,99021.16
2023-04-17T04:00:12.185Z,99024.88
2023-04-17T04:05:25.152Z,99006.27
2023-04-17T04:10:27.261Z,99026.44
2023-04-17T04:15:28.722Z,99029.36
2023-04-17T04:20:33.066Z,99027.94
2023-04-17T04:25:45.960Z,99028.63
2023-04-17T04:30:58.130Z,99037.66
2023-04-17T04:36:01.924Z,99019.98
2023-04-17T04:41:09.335Z,99046.33
2023-04-17T04:46:10.844Z,99049.00
2023-04-17T04:51:18.268Z,99037.51
2023-04-17T04:56:19.849Z,99043.95
2023-04-17T05:01:23.499Z,99050.95
2023-04-17T05:06:25.461Z,99047.98
2023-04-17T05:11:31.660Z,99056.69
2023-04-17T05:16:33.077Z,99055.99
2023-04-17T05:21:34.628Z,99053.44
2023-04-17T05:26:36.217Z,99060.08
2023-04-17T05:31:39.689Z,99062.06
2023-04-17T05:36:46.037Z,99064.68
2023-04-17T05:41:48.174Z,99066.05
2023-04-17T05:46:49.114Z,99067.90
2023-04-17T05:51:50.367Z,99071.02
2023-04-17T05:56:52.393Z,99066.98
2023-04-17T06:01:53.919Z,99061.83
2023-04-17T06:06:55.913Z,99065.01
2023-04-17T06:11:57.447Z,99072.14
2023-04-17T06:16:58.756Z,99073.20
2023-04-17T06:21:59.865Z,99072.73
2023-04-17T06:27:01.311Z,99081.11
2023-04-17T06:32:02.356Z,99080.89
2023-04-17T06:37:03.905Z,99089.55
2023-04-17T06:42:05.803Z,99092.22
2023-04-17T06:47:11.451Z,99095.67
2023-04-17T06:52:12.657Z,99095.77
2023-04-17T06:57:13.662Z,99096.13
2023-04-17T07:02:14.824Z,99095.60
2023-04-17T07:07:16.337Z,99096.59
2023-04-17T07:12:17.432Z,99099.45
2023-04-17T07:17:18.860Z,99104.78
2023-04-17T07:22:20.110Z,99106.89
2023-04-17T07:27:21.348Z,99102.61
2023-04-17T07:32:25.818Z,99111.36
2023-04-17T07:37:26.866Z,99123.54
2023-04-17T07:42:28.610Z,99130.38
2023-04-17T07:47:30.341Z,99143.09
2023-04-17T07:52:31.374Z,99146.17
2023-04-17T07:57:32.532Z,99143.77
2023-04-17T08:02:33.675Z,99140.17
2023-04-17T08:07:35.824Z,99145.13
2023-04-17T08:12:37.201Z,99146.46
2023-04-17T08:17:38.261Z,99145.98
2023-04-17T08:22:40.686Z,99145.67
2023-04-17T08:27:42.623Z,99143.96
2023-04-17T08:32:45.604Z,99140.67
2023-04-17T08:37:46.602Z,99147.52
2023-04-17T08:42:49.664Z,99145.15
2023-04-17T08:47:50.726Z,99141.19
2023-04-17T08:52:51.992Z,99144.92
2023-04-17T08:57:56.587Z,99143.52
2023-04-17T09:02:59.450Z,99141.41
2023-04-17T09:08:19.892Z,99136.38
2023-04-17T09:13:24.295Z,99130.73
2023-04-17T09:18:30.237Z,99129.73
2023-04-17T09:23:49.544Z,99126.21
2023-04-17T09:29:10.535Z,99133.98
2023-04-17T09:34:12.784Z,99136.27
2023-04-17T09:39:19.844Z,99134.92
2023-04-17T09:44:29.428Z,99123.42
2023-04-17T09:49:37.290Z,99127.69
2023-04-17T09:54:39.365Z,99122.52
2023-04-17T09:59:44.430Z,99121.60
2023-04-17T10:04:46.777Z,99117.25
2023-04-17T10:09:47.813Z,99111.77
2023-04-17T10:14:57.555Z,99091.54
2023-04-17T10:20:17.062Z,99107.67
2023-04-17T10:25:20.030Z,99105.29
2023-04-17T10:30:21.854Z,99095.10
2023-04-17T10:35:23.137Z,99098.57
2023-04-17T10:40:29.971Z,99090.23
2023-04-17T10:45:56.289Z,99081.09
2023-04-17T10:50:57.533Z,99074.14
2023-04-17T10:55:58.575Z,99073.42
2023-04-17T11:01:09.164Z,99068.64
2023-04-17T11:06:12.536Z,99064.52
2023-04-17T11:11:18.530Z,99064.83
2023-04-17T11:16:25.028Z,99060.73
2023-04-17T11:21:26.641Z,99064.30
2023-04-17T11:26:27.658Z,99063.70
2023-04-17T11:31:28.716Z,99066.02
2023-04-17T11:36:32.172Z,99073.86
2023-04-17T11:41:41.844Z,99075.36
2023-04-17T11:47:00.152Z,99078.65
2023-04-17T11:52:03.652Z,99081.77
2023-04-17T11:57:10.080Z,99082.13
2023-04-17T12:02:11.668Z,99078.85
2023-04-17T12:07:22.240Z,99085.66
2023-04-17T12:12:23.534Z,99089.05
2023-04-17T12:17:24.714Z,99087.23
2023-04-17T12:22:25.974Z,99092.74
2023-04-17T12:27:27.302Z,99092.08
2023-04-17T12:32:28.739Z,99091.55
2023-04-17T12:37:29.726Z,99093.40
2023-04-17T12:42:33.709Z,99097.92
2023-04-17T12:47:41.490Z,99095.77
2023-04-17T12:52:42.515Z,99100.14
2023-04-17T12:57:43.577Z,99105.88
2023-04-17T13:02:44.684Z,99106.64
2023-04-17T13:07:46.640Z,99110.20
2023-04-17T13:12:47.829Z,99108.02
2023-04-17T13:17:48.871Z,99106.05
2023-04-17T13:22:49.893Z,99111.81
2023-04-17T13:27:51.043Z,99115.27
2023-04-17T13:32:52.056Z,99113.25
2023-04-17T13:37:54.176Z,99114.15
2023-04-17T13:42:55.620Z,99108.48
2023-04-17T13:47:56.771Z,99109.42
2023-04-17T13:52:57.792Z,99105.79
2023-04-17T13:58:00.326Z,99102.84
2023-04-17T14:03:01.479Z,99102.38
2023-04-17T14:08:02.681Z,99103.35
2023-04-17T14:13:03.669Z,99077.55
2023-04-17T14:18:04.969Z,99099.54
2023-04-17T14:23:06.122Z,99098.68
2023-04-17T14:28:07.262Z,99100.66
2023-04-17T14:33:08.395Z,99098.70
2023-04-17T14:38:09.514Z,99098.88
2023-04-17T14:43:10.775Z,99107.60
2023-04-17T14:48:11.832Z,99107.00
2023-04-17T14:53:13.171Z,99109.25
2023-04-17T14:58:14.113Z,99111.32
2023-04-17T15:03:15.188Z,99111.52
2023-04-17T15:08:16.213Z,99109.62
2023-04-17T15:13:17.204Z,99112.55
2023-04-17T15:18:18.200Z,99116.84
2023-04-17T15:23:20.450Z,99116.34
2023-04-17T15:28:21.432Z,99109.82
2023-04-17T15:33:22.467Z,99107.76
2023-04-17T15:38:27.050Z,99107.75
2023-04-17T15:43:28.313Z,99107.92
2023-04-17T15:48:29.368Z,99108.10
2023-04-17T15:53:31.174Z,99107.73
2023-04-17T15:58:33.418Z,99111.45
2023-04-17T16:03:36.775Z,99111.09
2023-04-17T16:08:37.988Z,99112.10
2023-04-17T16:13:39.102Z,99116.73
2023-04-17T16:18:40.314Z,99110.20
2023-04-17T16:23:41.386Z,99113.44
2023-04-17T16:28:42.638Z,99120.44
2023-04-17T16:33:43.758Z,99119.38
2023-04-17T16:38:45.518Z,99123.97
2023-04-17T16:43:46.545Z,99128.21
2023-04-17T16:48:47.622Z,99133.65
2023-04-17T16:53:51.914Z,99132.76
2023-04-17T16:58:53.120Z,99140.98
2023-04-17T17:03:54.318Z,99142.15
2023-04-17T17:08:55.561Z,99147.61
2023-04-17T17:13:57.263Z,99145.54
2023-04-17T17:18:59.475Z,99147.55
2023-04-17T17:24:00.534Z,99151.47
2023-04-17T17:29:01.839Z,99153.15
2023-04-17T17:34:17.010Z,99158.92
2023-04-17T17:39:23.347Z,99163.97
2023-04-17T17:44:24.383Z,99170.54
2023-04-17T17:49:25.291Z,99169.75
2023-04-17T17:54:26.244Z,99166.41
2023-04-17T17:59:27.241Z,99173.66
2023-04-17T18:04:28.490Z,99176.52
2023-04-17T18:09:30.396Z,99177.86
2023-04-17T18:14:31.483Z,99185.75
2023-04-17T18:19:32.660Z,99189.48
2023-04-17T18:24:34.603Z,99193.22
2023-04-17T18:29:35.647Z,99194.88
2023-04-17T18:34:36.730Z,99196.17
2023-04-17T18:39:37.718Z,99198.48
2023-04-17T18:44:38.724Z,99201.48
2023-04-17T18:49:39.765Z,99201.75
2023-04-17T18:54:40.712Z,99202.73
2023-04-17T18:59:43.157Z,99203.52
2023-04-17T19:04:44.454Z,99205.17
2023-04-17T19:09:45.585Z,99203.90
2023-04-17T19:14:46.510Z,99211.17
2023-04-17T19:19:47.453Z,99204.64
2023-04-17T19:24:50.287Z,99207.65
2023-04-17T19:29:51.272Z,99202.50
2023-04-17T19:34:52.216Z,99201.98
2023-04-17T19:39:56.515Z,99198.39
2023-04-17T19:44:57.903Z,99199.56
2023-04-17T19:49:58.901Z,99197.15
2023-04-17T19:55:00.857Z,99199.05
2023-04-17T20:00:03.360Z,99193.36
2023-04-17T20:05:13.702Z,99194.01
2023-04-17T20:10:16.084Z,99191.73
2023-04-17T20:15:19.228Z,99189.47
2023-04-17T20:20:20.736Z,99193.02
2023-04-17T20:25:22.379Z,99190.42
2023-04-17T20:30:24.046Z,99192.94
2023-04-17T20:35:25.072Z,99191.52
2023-04-17T20:40:26.306Z,99192.17
2023-04-17T20:45:27.470Z,99190.13
2023-04-17T20:50:28.483Z,99189.92
2023-04-17T20:55:29.666Z,99191.13
2023-04-17T21:00:33.990Z,99173.05
2023-04-17T21:05:34.962Z,99191.13
2023-04-17T21:10:36.992Z,99192.48
2023-04-17T21:15:41.541Z,99194.70
2023-04-17T21:20:42.572Z,99192.15
2023-04-17T21:25:43.562Z,99190.45
2023-04-17T21:30:44.569Z,99185.15
2023-04-17T21:35:45.611Z,99186.48
2023-04-17T21:40:51.421Z,99180.84
2023-04-17T21:45:56.379Z,99181.35
2023-04-17T21:51:05.575Z,99179.13
2023-04-17T21:56:07.754Z,99180.11
2023-04-17T22:01:08.776Z,99180.27
2023-04-17T22:06:10.823Z,99179.22
2023-04-17T22:11:11.836Z,99181.77
2023-04-17T22:16:12.848Z,99181.42
2023-04-17T22:21:14.882Z,99180.23
2023-04-17T22:26:15.958Z,99182.46
2023-04-17T22:31:16.973Z,99180.41
2023-04-17T22:36:17.999Z,99187.75
2023-04-17T22:41:18.966Z,99185.02
2023-04-17T22:46:20.264Z,99182.27
2023-04-17T22:51:21.728Z,99185.64
2023-04-17T22:56:23.741Z,99183.70
2023-04-17T23:01:24.962Z,99181.25
2023-04-17T23:06:25.989Z,99181.71
2023-04-17T23:11:30.810Z,99173.80
2023-04-17T23:16:32.108Z,99177.59
2023-04-17T23:21:33.152Z,99172.09
2023-04-17T23:26:34.203Z,99173.23
2023-04-17T23:31:38.230Z,99166.42
2023-04-17T23:36:39.251Z,99160.27
2023-04-17T23:41:41.505Z,99164.55
2023-04-17T23:46:42.480Z,99162.16
2023-04-17T23:51:45.171Z,99155.02
2023-04-17T23:56:46.512Z,99157.06
